Lynchburg Regional Preston Glenn Field Lynchburg US
ICAO: KLYH
IATA: LYH
Category: Medium
Scheduled Services: Yes

Elevation: 938 ft
TransAlt. 18000 ft.

Airport Communications:
ROANOKE APP/DEP:125.47
ATIS:119.8
CTAF:127.65
GND:121.9
LEESBURG RDO:109.2
TWR:127.65
UNICOM:122.95

KLYH Zoom In..

Runways:

(A) RW 04 length 7100 ft width 150 ft
ILS 110.10 / hdg 36

(B) RW 17 length 3386 ft width 75 ft
---- / hdg 170

(C) RW 22 length 7100 ft width 150 ft
---- / hdg 216

(D) RW 35 length 3386 ft width 75 ft
---- / hdg 350

Location; KLYH
Day. 25 / Time. 10.45 Zulu
* Altimeter: 29.77
* Temperature: 12° c. 53.6°f.
* Wind from: 020° Speed 08 kn.
Dewpoint: 11° c.
Visibility: 2 m.
Clouds: Overcast 400 ft.
Conditions: Mist.

KLYH 251045Z 02008KT 2 1/2SM BR OVC004 12/11 A2977 RMK AO2 RAB0956E10 P0000 T01170111


Wind From 020°
Speed 08 kn.

  YouTube Music Video
 
jpsmedia.com for Web Design  worldairports.se 2018   terms of use